Time;durP1;ratioP1;P1;durP2;ratioP2;P2;SDS_P1;SDS_P2;PMS_P1;PMS_P2;Temp;Humidity;BMP_temperature;BMP_pressure;BME280_temperature;BME280_humidity;BME280_pressure;Samples;Min_cycle;Max_cycle;Signal;HPM_P1;HPM_P2
2021/11/26 00:01:20;;;;;;;2.72;2.30;;;6.80;76.10;;;;;;5085916;28;20032;-83
2021/11/26 00:03:45;;;;;;;2.63;2.00;;;6.80;76.10;;;;;;5037711;28;20491;-80
2021/11/26 00:06:11;;;;;;;2.47;1.80;;;6.80;76.10;;;;;;5054785;28;20487;-79
2021/11/26 00:08:37;;;;;;;2.78;2.00;;;6.80;76.10;;;;;;5071602;28;20052;-79
2021/11/26 00:11:02;;;;;;;3.60;2.30;;;6.80;76.10;;;;;;5089325;28;20115;-80
2021/11/26 00:13:32;;;;;;;2.95;1.98;;;6.80;76.10;;;;;;5074823;28;20013;-79
2021/11/26 00:16:05;;;;;;;2.78;1.90;;;6.80;76.10;;;;;;5082618;28;20028;-79
2021/11/26 00:18:35;;;;;;;2.95;2.10;;;6.80;76.10;;;;;;5082143;28;20081;-80
2021/11/26 00:21:01;;;;;;;3.80;2.10;;;6.80;76.10;;;;;;5043636;28;20036;-79
2021/11/26 00:23:27;;;;;;;4.07;2.20;;;6.80;76.10;;;;;;5073623;28;20024;-83
2021/11/26 00:25:52;;;;;;;2.78;1.98;;;6.80;76.10;;;;;;5079599;28;20039;-80
2021/11/26 00:28:18;;;;;;;3.40;2.03;;;6.80;76.10;;;;;;5057473;28;20493;-79
2021/11/26 00:30:47;;;;;;;3.63;1.92;;;6.80;76.20;;;;;;5080578;28;20051;-79
2021/11/26 00:33:14;;;;;;;3.00;2.03;;;6.80;76.20;;;;;;5067342;28;20047;-79
2021/11/26 00:35:39;;;;;;;2.85;1.90;;;6.80;76.20;;;;;;5071231;28;20029;-80
2021/11/26 00:38:05;;;;;;;3.05;2.20;;;6.70;76.20;;;;;;5073728;28;20055;-80
2021/11/26 00:40:31;;;;;;;3.33;2.47;;;6.80;76.20;;;;;;5066240;28;20044;-80
2021/11/26 00:42:56;;;;;;;3.80;2.17;;;6.80;76.20;;;;;;5042989;28;20506;-79
2021/11/26 00:45:23;;;;;;;3.63;2.05;;;6.80;76.20;;;;;;5081790;28;20020;-80
2021/11/26 00:47:50;;;;;;;3.03;2.00;;;6.80;76.30;;;;;;5091691;28;20036;-80
2021/11/26 00:50:17;;;;;;;3.03;2.25;;;6.80;76.20;;;;;;5077261;28;20020;-83
2021/11/26 00:52:44;;;;;;;3.45;2.20;;;6.80;76.30;;;;;;5073979;28;20032;-79
2021/11/26 00:55:10;;;;;;;2.70;1.95;;;6.80;76.30;;;;;;5076342;28;20028;-79
2021/11/26 00:57:36;;;;;;;3.92;1.98;;;6.80;76.30;;;;;;5078236;28;20036;-79
2021/11/26 01:00:05;;;;;;;3.13;2.00;;;6.70;76.20;;;;;;5076501;28;20029;-79
2021/11/26 01:02:31;;;;;;;3.22;2.28;;;6.70;76.20;;;;;;5067938;28;20510;-80
2021/11/26 01:04:57;;;;;;;3.67;2.10;;;6.70;76.20;;;;;;5070189;28;20020;-79
2021/11/26 01:07:22;;;;;;;3.05;1.90;;;6.70;76.20;;;;;;5075467;28;20025;-79
2021/11/26 01:09:48;;;;;;;3.75;2.28;;;6.70;76.20;;;;;;5086414;28;20483;-79
2021/11/26 01:12:14;;;;;;;2.92;2.00;;;6.70;76.30;;;;;;5082953;28;20032;-79
2021/11/26 01:14:40;;;;;;;3.35;2.10;;;6.70;76.30;;;;;;5075857;28;20047;-82
2021/11/26 01:17:06;;;;;;;3.60;2.20;;;6.70;76.30;;;;;;5080159;28;20041;-81
2021/11/26 01:19:31;;;;;;;3.67;1.85;;;6.70;76.30;;;;;;5091973;28;20035;-81
2021/11/26 01:21:57;;;;;;;2.95;2.00;;;6.70;76.30;;;;;;5073628;28;20431;-79
2021/11/26 01:24:23;;;;;;;2.22;1.92;;;6.70;76.30;;;;;;5073289;28;20012;-80
2021/11/26 01:26:49;;;;;;;3.63;2.20;;;6.70;76.30;;;;;;5075007;28;20055;-80
2021/11/26 01:29:14;;;;;;;2.97;2.15;;;6.70;76.30;;;;;;5087140;28;20181;-79
2021/11/26 01:31:41;;;;;;;2.88;2.00;;;6.70;76.30;;;;;;5068289;28;20035;-79
2021/11/26 01:34:08;;;;;;;3.13;2.13;;;6.70;76.30;;;;;;5080555;28;20032;-81
2021/11/26 01:36:35;;;;;;;3.00;2.22;;;6.70;76.30;;;;;;5064482;28;20032;-79
2021/11/26 01:39:03;;;;;;;2.45;1.90;;;6.70;76.30;;;;;;5085709;28;20050;-80
2021/11/26 01:41:29;;;;;;;3.10;2.10;;;6.70;76.40;;;;;;5083186;28;20040;-83
2021/11/26 01:43:55;;;;;;;3.30;2.05;;;6.70;76.30;;;;;;5083700;28;20028;-79
2021/11/26 01:46:20;;;;;;;3.50;2.40;;;6.80;76.40;;;;;;5071768;28;20041;-80
2021/11/26 01:48:46;;;;;;;2.08;1.88;;;6.70;76.30;;;;;;5073012;28;20042;-79
2021/11/26 01:51:12;;;;;;;3.45;1.98;;;6.70;76.30;;;;;;5085285;28;20416;-85
2021/11/26 01:53:40;;;;;;;3.00;1.80;;;6.80;76.40;;;;;;5078379;28;20100;-80
2021/11/26 01:56:06;;;;;;;2.33;1.95;;;6.70;76.30;;;;;;5089823;28;20069;-79
2021/11/26 01:58:33;;;;;;;2.65;1.95;;;6.70;76.40;;;;;;5082504;28;20023;-80
2021/11/26 02:01:00;;;;;;;3.22;2.05;;;6.80;76.40;;;;;;5051489;28;20453;-79
2021/11/26 02:03:25;;;;;;;2.75;2.00;;;6.80;76.50;;;;;;5080564;28;20028;-80
2021/11/26 02:05:51;;;;;;;2.63;1.95;;;6.80;76.50;;;;;;5067680;28;20388;-80
2021/11/26 02:08:17;;;;;;;2.97;1.92;;;6.80;76.40;;;;;;5064688;28;20035;-79
2021/11/26 02:10:43;;;;;;;3.90;1.90;;;6.80;76.40;;;;;;5082835;28;20468;-79
2021/11/26 02:13:10;;;;;;;2.45;2.00;;;6.80;76.50;;;;;;5073575;28;20029;-79
2021/11/26 02:15:41;;;;;;;2.38;1.90;;;6.80;76.50;;;;;;5075039;28;20029;-79
2021/11/26 02:18:08;;;;;;;2.60;1.75;;;6.80;76.50;;;;;;5073610;28;20030;-80
2021/11/26 02:20:34;;;;;;;2.40;1.70;;;6.80;76.50;;;;;;5068983;28;20128;-79
2021/11/26 02:23:00;;;;;;;2.63;1.95;;;6.80;76.50;;;;;;5050084;28;20127;-80
2021/11/26 02:25:27;;;;;;;2.60;1.73;;;6.80;76.50;;;;;;5080746;28;20024;-80
2021/11/26 02:27:58;;;;;;;2.50;1.85;;;6.80;76.50;;;;;;5092978;28;20089;-79
2021/11/26 02:30:24;;;;;;;1.80;1.65;;;6.80;76.50;;;;;;5080520;28;20052;-79
2021/11/26 02:32:57;;;;;;;2.00;1.70;;;6.80;76.50;;;;;;5049983;28;20044;-79
2021/11/26 02:35:24;;;;;;;2.25;1.83;;;6.80;76.50;;;;;;5088282;28;20020;-81
2021/11/26 02:37:50;;;;;;;2.15;1.70;;;6.80;76.50;;;;;;5085827;28;20035;-79
2021/11/26 02:40:22;;;;;;;3.25;1.70;;;6.80;76.50;;;;;;5088797;28;20032;-80
2021/11/26 02:42:50;;;;;;;2.90;1.58;;;6.80;76.50;;;;;;5075999;28;20045;-80
2021/11/26 02:45:17;;;;;;;1.92;1.50;;;6.80;76.50;;;;;;5086115;28;20078;-80
2021/11/26 02:47:43;;;;;;;1.65;1.55;;;6.90;76.60;;;;;;5074863;28;20035;-81
2021/11/26 02:50:11;;;;;;;1.92;1.50;;;6.90;76.50;;;;;;5080958;28;20031;-79
2021/11/26 02:52:38;;;;;;;1.55;1.45;;;6.80;76.50;;;;;;5065861;28;20039;-79
2021/11/26 02:55:07;;;;;;;3.00;1.80;;;6.90;76.60;;;;;;5090294;28;20449;-81
2021/11/26 02:57:33;;;;;;;1.92;1.52;;;6.90;76.60;;;;;;5061309;28;20103;-80
2021/11/26 02:59:59;;;;;;;1.90;1.58;;;6.90;76.50;;;;;;5066674;28;20119;-79
2021/11/26 03:02:24;;;;;;;1.50;1.40;;;6.90;76.60;;;;;;5088346;28;20036;-79
2021/11/26 03:04:50;;;;;;;2.38;1.70;;;6.90;76.60;;;;;;5078449;28;20102;-80
2021/11/26 03:07:16;;;;;;;1.85;1.50;;;6.90;76.60;;;;;;5079767;28;20423;-83
2021/11/26 03:09:42;;;;;;;1.83;1.60;;;6.90;76.50;;;;;;5071534;28;20029;-79
2021/11/26 03:12:08;;;;;;;1.77;1.40;;;6.90;76.60;;;;;;5054473;28;20091;-80
2021/11/26 03:14:35;;;;;;;1.50;1.40;;;6.90;76.50;;;;;;5096457;28;20063;-79
2021/11/26 03:17:01;;;;;;;1.83;1.58;;;6.90;76.50;;;;;;5094102;28;20069;-78
2021/11/26 03:19:27;;;;;;;1.95;1.38;;;6.90;76.50;;;;;;5076745;28;20032;-78
2021/11/26 03:21:53;;;;;;;1.63;1.42;;;6.90;76.50;;;;;;5059827;28;20036;-77
2021/11/26 03:24:18;;;;;;;1.73;1.50;;;7.00;76.60;;;;;;5060156;28;20035;-78
2021/11/26 03:26:44;;;;;;;2.33;1.60;;;7.00;76.60;;;;;;5076408;28;20036;-78
2021/11/26 03:29:10;;;;;;;1.70;1.50;;;7.00;76.60;;;;;;5076727;28;20032;-78
2021/11/26 03:31:36;;;;;;;1.58;1.48;;;7.00;76.60;;;;;;5076332;28;20054;-78
2021/11/26 03:34:03;;;;;;;1.80;1.52;;;7.00;76.60;;;;;;5093407;28;20078;-78
2021/11/26 03:36:29;;;;;;;1.40;1.30;;;7.00;76.60;;;;;;5077050;28;20028;-78
2021/11/26 03:38:55;;;;;;;1.67;1.50;;;7.00;76.60;;;;;;5077102;28;20094;-78
2021/11/26 03:41:21;;;;;;;2.40;1.85;;;7.00;76.60;;;;;;5076451;28;20027;-80
2021/11/26 03:43:47;;;;;;;2.13;1.60;;;7.00;76.60;;;;;;5093309;28;20460;-79
2021/11/26 03:46:13;;;;;;;2.05;1.83;;;7.00;76.60;;;;;;5077036;28;20364;-79
2021/11/26 03:48:39;;;;;;;1.65;1.50;;;7.00;76.60;;;;;;5076029;28;20453;-78
2021/11/26 03:51:04;;;;;;;1.58;1.48;;;7.00;76.60;;;;;;5059473;28;20177;-79
2021/11/26 03:53:30;;;;;;;2.33;1.60;;;7.10;76.60;;;;;;5075963;28;20047;-80
2021/11/26 03:55:56;;;;;;;1.90;1.50;;;7.00;76.60;;;;;;5059045;28;20040;-79
2021/11/26 03:58:22;;;;;;;1.63;1.52;;;7.10;76.60;;;;;;5092611;28;20020;-79
2021/11/26 04:00:47;;;;;;;1.88;1.50;;;7.10;76.60;;;;;;5059145;28;20105;-78
2021/11/26 04:03:13;;;;;;;1.77;1.52;;;7.10;76.60;;;;;;5093517;28;20063;-78
2021/11/26 04:05:39;;;;;;;1.67;1.48;;;7.10;76.60;;;;;;5075909;28;20028;-78
2021/11/26 04:08:05;;;;;;;1.60;1.50;;;7.10;76.60;;;;;;5075912;28;20485;-79
2021/11/26 04:10:31;;;;;;;1.50;1.40;;;7.10;76.60;;;;;;5075702;28;20036;-78
2021/11/26 04:12:57;;;;;;;1.90;1.60;;;7.10;76.60;;;;;;5076118;28;20028;-79
2021/11/26 04:15:23;;;;;;;1.98;1.60;;;7.10;76.60;;;;;;5076469;28;20031;-79
2021/11/26 04:17:50;;;;;;;1.80;1.60;;;7.10;76.60;;;;;;5092157;28;20099;-81
2021/11/26 04:20:18;;;;;;;1.50;1.38;;;7.10;76.60;;;;;;5093574;28;20067;-78
2021/11/26 04:22:45;;;;;;;1.50;1.40;;;7.10;76.60;;;;;;5075053;28;20032;-78
2021/11/26 04:25:14;;;;;;;1.85;1.60;;;7.10;76.60;;;;;;5075830;28;20035;-81
2021/11/26 04:27:41;;;;;;;1.73;1.63;;;7.10;77.20;;;;;;5075498;28;20020;-79
2021/11/26 04:30:08;;;;;;;2.20;1.48;;;7.10;76.60;;;;;;5075590;28;20038;-79
2021/11/26 04:32:35;;;;;;;1.52;1.40;;;7.10;76.60;;;;;;5075900;28;20043;-79
2021/11/26 04:35:01;;;;;;;1.65;1.55;;;7.20;76.60;;;;;;5075925;28;20114;-79
2021/11/26 04:37:27;;;;;;;1.55;1.45;;;7.20;76.60;;;;;;5075750;28;20252;-79
2021/11/26 04:39:53;;;;;;;1.77;1.40;;;7.10;76.60;;;;;;5075884;28;20095;-80
2021/11/26 04:42:19;;;;;;;1.55;1.45;;;7.20;76.60;;;;;;5042285;28;20122;-79
2021/11/26 04:44:44;;;;;;;2.13;1.60;;;7.20;76.60;;;;;;5059713;28;20028;-78
2021/11/26 04:47:10;;;;;;;1.30;1.20;;;7.20;76.60;;;;;;5059677;28;20032;-80
2021/11/26 04:49:36;;;;;;;1.52;1.42;;;7.20;76.60;;;;;;5075608;28;20389;-79
2021/11/26 04:52:03;;;;;;;2.20;1.52;;;7.20;76.60;;;;;;5092745;28;20115;-79
2021/11/26 04:54:29;;;;;;;1.48;1.38;;;7.20;76.60;;;;;;5092054;28;20031;-79
2021/11/26 04:56:56;;;;;;;1.58;1.48;;;7.20;76.60;;;;;;5075463;28;20028;-79
2021/11/26 04:59:22;;;;;;;1.75;1.38;;;7.20;76.60;;;;;;5075524;28;20524;-79
2021/11/26 05:01:48;;;;;;;1.40;1.30;;;7.20;77.20;;;;;;5058519;28;20044;-79
2021/11/26 05:04:14;;;;;;;1.40;1.30;;;7.20;76.60;;;;;;5042278;28;20180;-80
2021/11/26 05:06:40;;;;;;;1.55;1.45;;;7.20;76.60;;;;;;5075296;28;20068;-79
2021/11/26 05:09:08;;;;;;;1.50;1.40;;;7.20;76.60;;;;;;5076071;28;20055;-79
2021/11/26 05:11:33;;;;;;;1.45;1.35;;;7.30;76.60;;;;;;5091982;28;20032;-79
2021/11/26 05:14:02;;;;;;;1.38;1.27;;;7.30;76.60;;;;;;5075334;28;20025;-80
2021/11/26 05:16:28;;;;;;;1.40;1.30;;;7.30;76.60;;;;;;5075048;28;20039;-80
2021/11/26 05:18:53;;;;;;;1.83;1.30;;;7.30;76.60;;;;;;5059094;28;20032;-78
2021/11/26 05:21:19;;;;;;;1.40;1.30;;;7.30;76.60;;;;;;5076675;28;20369;-78
2021/11/26 05:23:45;;;;;;;1.40;1.30;;;7.30;76.60;;;;;;5076453;28;20492;-80
2021/11/26 05:26:12;;;;;;;1.50;1.27;;;7.30;76.60;;;;;;5075617;28;20047;-79
2021/11/26 05:28:38;;;;;;;1.30;1.20;;;7.30;76.60;;;;;;5093198;28;20025;-78
2021/11/26 05:31:04;;;;;;;1.30;1.20;;;7.30;76.60;;;;;;5095699;28;20097;-78
2021/11/26 05:33:31;;;;;;;1.42;1.33;;;7.30;76.60;;;;;;5095835;28;20028;-78
2021/11/26 05:35:57;;;;;;;1.30;1.20;;;7.30;76.60;;;;;;5095358;28;20032;-79
2021/11/26 05:38:23;;;;;;;1.67;1.33;;;7.30;76.60;;;;;;5078517;28;20024;-80
2021/11/26 05:40:49;;;;;;;1.10;1.10;;;7.40;76.60;;;;;;5062189;28;20024;-79
2021/11/26 05:43:16;;;;;;;1.40;1.30;;;7.30;76.50;;;;;;5061686;28;20094;-79
2021/11/26 05:45:43;;;;;;;1.40;1.27;;;7.30;76.60;;;;;;5096760;28;20035;-79
2021/11/26 05:48:09;;;;;;;1.17;1.10;;;7.30;76.50;;;;;;5078160;28;20047;-79
2021/11/26 05:50:35;;;;;;;1.15;1.08;;;7.30;76.50;;;;;;5078235;28;20457;-80
2021/11/26 05:53:01;;;;;;;1.30;1.20;;;7.30;76.50;;;;;;5095049;28;20487;-79
2021/11/26 05:55:31;;;;;;;1.88;1.20;;;7.40;76.60;;;;;;5083962;28;20043;-79
2021/11/26 05:57:58;;;;;;;1.20;1.13;;;7.30;76.50;;;;;;5103913;28;20074;-78
2021/11/26 06:00:25;;;;;;;1.48;1.23;;;7.30;76.50;;;;;;5086114;28;20534;-79
2021/11/26 06:02:52;;;;;;;1.15;1.05;;;7.30;76.50;;;;;;5094910;28;20081;-79
2021/11/26 06:05:18;;;;;;;1.50;1.40;;;7.30;76.50;;;;;;5078293;28;20016;-81
2021/11/26 06:07:44;;;;;;;1.50;1.10;;;7.30;76.50;;;;;;5094988;28;20388;-80
2021/11/26 06:10:13;;;;;;;1.10;1.00;;;7.40;76.50;;;;;;5077906;28;20032;-82
2021/11/26 06:12:40;;;;;;;1.27;1.17;;;7.40;76.60;;;;;;5094523;28;20060;-79
2021/11/26 06:15:07;;;;;;;1.50;1.13;;;7.40;76.60;;;;;;5095896;28;20063;-79
2021/11/26 06:17:33;;;;;;;1.42;1.20;;;7.40;76.50;;;;;;5094375;28;20077;-79
2021/11/26 06:19:59;;;;;;;1.13;1.10;;;7.40;76.50;;;;;;5094350;28;20028;-79
2021/11/26 06:22:25;;;;;;;1.25;1.15;;;7.40;76.50;;;;;;5095887;28;20032;-79
2021/11/26 06:24:50;;;;;;;1.17;1.15;;;7.40;76.50;;;;;;5094358;28;20036;-80
2021/11/26 06:27:16;;;;;;;1.30;1.20;;;7.40;76.50;;;;;;5077863;28;20028;-79
2021/11/26 06:29:42;;;;;;;1.30;1.10;;;7.40;76.50;;;;;;5077779;28;20024;-79
2021/11/26 06:32:08;;;;;;;1.33;1.10;;;7.40;76.50;;;;;;5060530;28;20059;-79
2021/11/26 06:34:33;;;;;;;1.30;1.20;;;7.40;76.50;;;;;;5094736;28;20169;-80
2021/11/26 06:36:59;;;;;;;1.13;1.10;;;7.40;76.50;;;;;;5077590;28;20024;-78
2021/11/26 06:39:25;;;;;;;1.40;1.20;;;7.40;76.50;;;;;;5077509;28;20374;-78
2021/11/26 06:41:51;;;;;;;1.35;1.20;;;7.40;76.50;;;;;;5078031;28;20366;-78
2021/11/26 06:44:17;;;;;;;1.27;1.20;;;7.40;76.50;;;;;;5094375;28;20032;-78
2021/11/26 06:46:43;;;;;;;1.20;1.10;;;7.40;76.50;;;;;;5095710;28;20047;-79
2021/11/26 06:49:09;;;;;;;1.25;1.20;;;7.40;76.50;;;;;;5095103;28;20032;-78
2021/11/26 06:51:35;;;;;;;1.30;1.20;;;7.40;76.50;;;;;;5061440;28;20031;-80
2021/11/26 06:54:01;;;;;;;1.20;1.10;;;7.40;76.50;;;;;;5094011;28;20047;-79
2021/11/26 06:56:27;;;;;;;1.10;1.10;;;7.40;76.50;;;;;;5077155;28;20457;-79
2021/11/26 06:58:57;;;;;;;1.30;1.20;;;7.40;76.50;;;;;;5060788;28;20047;-78
2021/11/26 07:01:22;;;;;;;1.20;1.10;;;7.40;76.50;;;;;;5076928;28;20066;-78
2021/11/26 07:03:48;;;;;;;1.95;1.50;;;7.40;76.50;;;;;;5060445;28;20060;-78
2021/11/26 07:06:14;;;;;;;1.30;1.20;;;7.40;76.50;;;;;;5076862;28;20135;-79
2021/11/26 07:08:40;;;;;;;1.40;1.30;;;7.40;76.50;;;;;;5076782;28;20057;-80
2021/11/26 07:11:05;;;;;;;1.27;1.17;;;7.40;76.50;;;;;;5077673;28;20033;-79
2021/11/26 07:13:31;;;;;;;1.30;1.20;;;7.40;76.50;;;;;;5076570;28;20028;-79
2021/11/26 07:15:57;;;;;;;1.70;1.30;;;7.40;76.50;;;;;;5076888;28;20024;-78
2021/11/26 07:18:23;;;;;;;1.38;1.20;;;7.40;76.50;;;;;;5076370;28;20035;-79
2021/11/26 07:20:48;;;;;;;1.73;1.42;;;7.40;76.50;;;;;;5095010;28;20154;-80
2021/11/26 07:23:14;;;;;;;1.40;1.30;;;7.40;76.50;;;;;;5076465;28;20403;-78
2021/11/26 07:25:40;;;;;;;1.23;1.20;;;7.40;76.50;;;;;;5076770;28;20498;-79
2021/11/26 07:28:06;;;;;;;1.95;1.50;;;7.40;76.50;;;;;;5077282;28;20032;-79
2021/11/26 07:30:32;;;;;;;1.35;1.23;;;7.40;76.50;;;;;;5093094;28;20377;-79
2021/11/26 07:32:58;;;;;;;4.10;1.70;;;7.40;76.50;;;;;;5095800;28;20056;-78
2021/11/26 07:35:24;;;;;;;1.63;1.30;;;7.40;76.50;;;;;;5076119;28;20496;-78
2021/11/26 07:37:50;;;;;;;3.17;1.55;;;7.40;76.50;;;;;;5075926;28;20056;-79
2021/11/26 07:40:16;;;;;;;2.35;1.67;;;7.40;76.50;;;;;;5094621;28;20060;-79
2021/11/26 07:42:43;;;;;;;1.45;1.33;;;7.40;76.50;;;;;;5093692;28;20452;-78
2021/11/26 07:45:10;;;;;;;1.40;1.30;;;7.40;76.50;;;;;;5093167;28;20027;-79
2021/11/26 07:47:37;;;;;;;2.05;1.40;;;7.40;76.50;;;;;;5094515;28;20020;-81
2021/11/26 07:50:04;;;;;;;1.63;1.40;;;7.40;76.50;;;;;;5093980;28;20473;-80
2021/11/26 07:52:30;;;;;;;1.30;1.20;;;7.40;76.50;;;;;;5075922;28;20040;-80
2021/11/26 07:54:55;;;;;;;1.52;1.33;;;7.40;76.50;;;;;;5093060;28;20372;-81
2021/11/26 07:57:21;;;;;;;2.28;1.77;;;7.40;76.50;;;;;;5076496;28;20059;-80
2021/11/26 07:59:47;;;;;;;2.78;1.70;;;7.40;76.50;;;;;;5061202;28;20020;-81
2021/11/26 08:02:12;;;;;;;2.47;1.50;;;7.50;76.50;;;;;;5080048;28;20051;-82
2021/11/26 08:04:38;;;;;;;1.65;1.55;;;7.40;76.50;;;;;;5079366;28;20034;-82
2021/11/26 08:07:04;;;;;;;1.88;1.48;;;7.40;76.50;;;;;;5078509;28;20054;-82
2021/11/26 08:09:30;;;;;;;2.35;1.70;;;7.40;76.50;;;;;;5062180;28;20032;-81
2021/11/26 08:11:56;;;;;;;2.67;1.80;;;7.40;76.50;;;;;;5094845;28;20039;-81
2021/11/26 08:14:23;;;;;;;2.72;1.85;;;7.50;76.50;;;;;;5077269;28;20032;-81
2021/11/26 08:16:50;;;;;;;3.47;1.90;;;7.40;76.50;;;;;;5075960;28;20447;-81
2021/11/26 08:19:17;;;;;;;2.50;1.80;;;7.50;76.50;;;;;;5092744;28;20030;-82
2021/11/26 08:21:43;;;;;;;2.65;1.90;;;7.40;76.50;;;;;;5059354;28;20444;-82
2021/11/26 08:24:10;;;;;;;2.33;1.80;;;7.50;76.50;;;;;;5092678;28;20032;-76
2021/11/26 08:26:38;;;;;;;2.38;2.00;;;7.50;76.50;;;;;;5092675;28;20033;-79
2021/11/26 08:29:04;;;;;;;2.45;1.77;;;7.40;76.50;;;;;;5059073;28;20035;-80
2021/11/26 08:31:31;;;;;;;3.67;1.95;;;7.40;76.50;;;;;;5075986;28;20052;-81
2021/11/26 08:33:58;;;;;;;2.47;1.67;;;7.50;77.20;;;;;;5076175;28;20115;-81
2021/11/26 08:36:24;;;;;;;3.67;2.25;;;7.50;76.50;;;;;;5092285;28;20040;-81
2021/11/26 08:38:52;;;;;;;2.58;1.90;;;7.40;76.50;;;;;;5059798;28;20040;-81
2021/11/26 08:41:18;;;;;;;4.18;2.28;;;7.50;76.60;;;;;;5075658;28;20031;-81
2021/11/26 08:43:44;;;;;;;2.22;2.00;;;7.50;76.50;;;;;;5092490;28;20036;-80
2021/11/26 08:46:10;;;;;;;2.80;2.05;;;7.40;76.50;;;;;;5076042;28;20016;-81
2021/11/26 08:48:36;;;;;;;3.78;1.90;;;7.50;76.50;;;;;;5075771;28;20028;-81
2021/11/26 08:51:01;;;;;;;3.00;2.00;;;7.50;76.50;;;;;;5075922;28;20047;-84
2021/11/26 08:53:28;;;;;;;2.67;1.95;;;7.40;76.50;;;;;;5075806;28;20486;-84
2021/11/26 08:55:54;;;;;;;3.47;1.80;;;7.50;76.50;;;;;;5076691;28;20066;-84
2021/11/26 08:58:22;;;;;;;3.72;2.13;;;7.50;76.50;;;;;;5093889;28;20043;-85
2021/11/26 09:00:48;;;;;;;3.70;2.25;;;7.50;76.50;;;;;;5092994;28;20111;-85
2021/11/26 09:03:15;;;;;;;3.25;2.13;;;7.50;76.50;;;;;;5076190;28;20039;-84
2021/11/26 09:05:41;;;;;;;3.38;2.35;;;7.50;76.50;;;;;;5079227;28;20043;-84
2021/11/26 09:08:13;;;;;;;4.18;2.00;;;7.50;76.50;;;;;;5080033;28;20036;-84
2021/11/26 09:10:40;;;;;;;3.03;1.90;;;7.50;76.50;;;;;;5080342;28;20027;-85
2021/11/26 09:13:08;;;;;;;4.18;2.35;;;7.50;76.50;;;;;;5097807;28;20024;-84
2021/11/26 09:15:36;;;;;;;2.53;1.80;;;7.50;76.50;;;;;;5081016;28;20028;-84
2021/11/26 09:18:02;;;;;;;4.28;2.15;;;7.50;76.50;;;;;;5096513;28;20024;-83
2021/11/26 09:20:28;;;;;;;3.50;2.65;;;7.50;76.50;;;;;;5079773;28;20053;-85
2021/11/26 09:22:55;;;;;;;5.20;2.28;;;7.50;76.50;;;;;;5079683;28;20032;-85
2021/11/26 09:25:21;;;;;;;5.03;2.38;;;7.50;76.50;;;;;;5080276;28;20047;-85
2021/11/26 09:27:47;;;;;;;4.20;2.30;;;7.60;76.60;;;;;;5079367;28;20028;-86
2021/11/26 09:30:19;;;;;;;3.75;2.17;;;7.60;76.60;;;;;;5079952;28;20028;-84
2021/11/26 09:32:45;;;;;;;3.50;2.05;;;7.60;76.60;;;;;;5096924;28;20549;-85
2021/11/26 09:35:12;;;;;;;3.35;2.15;;;7.60;76.60;;;;;;5079675;28;20043;-83
2021/11/26 09:37:38;;;;;;;3.97;2.30;;;7.60;76.60;;;;;;5096509;28;20054;-84
2021/11/26 09:40:06;;;;;;;3.78;2.25;;;7.60;76.60;;;;;;5063660;28;20048;-84
2021/11/26 09:42:32;;;;;;;3.38;2.08;;;7.60;76.60;;;;;;5062852;28;20101;-84
2021/11/26 09:45:00;;;;;;;3.67;2.40;;;7.60;76.60;;;;;;5096569;28;20464;-84
2021/11/26 09:47:31;;;;;;;3.90;1.95;;;7.70;76.60;;;;;;5079336;28;20487;-85
2021/11/26 09:50:04;;;;;;;4.18;2.28;;;7.70;76.60;;;;;;5096537;28;20060;-84
2021/11/26 09:52:30;;;;;;;4.03;2.40;;;7.70;76.60;;;;;;5096272;28;20042;-81
2021/11/26 09:54:56;;;;;;;3.85;2.47;;;7.70;77.20;;;;;;5078839;28;20439;-79
2021/11/26 09:57:22;;;;;;;4.57;2.60;;;7.60;76.60;;;;;;5061877;28;20032;-81
2021/11/26 09:59:47;;;;;;;3.15;2.20;;;7.60;76.60;;;;;;5095330;28;20024;-80
2021/11/26 10:02:20;;;;;;;4.00;2.40;;;7.70;76.60;;;;;;5078936;28;20028;-82
2021/11/26 10:05:08;;;;;;;3.53;2.17;;;7.70;76.70;;;;;;5077675;28;20053;-81
2021/11/26 10:07:45;;;;;;;5.50;2.33;;;7.70;76.80;;;;;;5061971;28;20028;-80
2021/11/26 10:10:13;;;;;;;4.50;2.30;;;7.70;76.70;;;;;;5078993;28;20040;-82
2021/11/26 10:12:42;;;;;;;2.70;2.13;;;7.70;76.60;;;;;;5077959;28;20123;-83
2021/11/26 10:15:08;;;;;;;3.97;2.20;;;7.70;76.60;;;;;;5095546;28;20111;-81
2021/11/26 10:17:34;;;;;;;4.28;2.35;;;7.70;76.60;;;;;;5094958;28;20111;-81
2021/11/26 10:20:13;;;;;;;2.88;2.00;;;7.70;76.60;;;;;;5061220;28;20119;-81
2021/11/26 10:22:42;;;;;;;4.03;2.30;;;7.70;76.60;;;;;;5078035;28;20064;-82
2021/11/26 10:25:16;;;;;;;3.47;2.38;;;7.70;76.60;;;;;;5094763;28;20035;-81
2021/11/26 10:28:02;;;;;;;4.55;2.65;;;7.80;76.70;;;;;;5095751;28;20028;-81
2021/11/26 10:30:31;;;;;;;3.10;2.05;;;7.80;76.80;;;;;;5077948;28;20032;-80
2021/11/26 10:33:20;;;;;;;3.28;2.00;;;7.80;76.70;;;;;;5094532;28;20052;-81
2021/11/26 10:35:56;;;;;;;2.92;2.05;;;7.80;76.80;;;;;;5077850;28;20052;-82
2021/11/26 10:38:26;;;;;;;2.72;1.90;;;7.80;76.70;;;;;;5077466;28;20380;-81
2021/11/26 10:41:18;;;;;;;2.92;2.05;;;7.80;76.70;;;;;;5077583;28;20094;-80
2021/11/26 10:46:41;;;;;;;2.92;1.90;;;7.80;76.70;;;;;;5096015;28;20040;-81
2021/11/26 10:58:13;;;;;;;3.60;2.33;;;7.90;76.80;;;;;;5094484;28;20085;-81
2021/11/26 11:00:01;;;;;;;3.03;1.90;;;7.90;76.80;;;;;;5077412;28;20060;-81
2021/11/26 11:02:35;;;;;;;4.30;2.20;;;7.90;76.80;;;;;;5094333;28;20032;-80
2021/11/26 11:05:13;;;;;;;3.60;2.15;;;7.90;76.80;;;;;;5094770;28;20031;-82
2021/11/26 11:07:44;;;;;;;2.60;1.98;;;7.90;76.80;;;;;;5077724;28;20027;-81
2021/11/26 11:10:32;;;;;;;4.60;2.22;;;8.00;76.80;;;;;;5093520;28;20115;-81
2021/11/26 11:13:10;;;;;;;3.58;2.13;;;8.00;76.80;;;;;;5076876;28;20036;-83
2021/11/26 11:15:37;;;;;;;3.60;2.20;;;8.00;76.80;;;;;;5077029;28;20050;-81
2021/11/26 11:18:03;;;;;;;3.33;2.03;;;8.00;76.70;;;;;;5093657;28;20082;-81
2021/11/26 11:20:30;;;;;;;3.53;2.00;;;8.00;76.80;;;;;;5093541;28;20028;-81
2021/11/26 11:22:57;;;;;;;4.90;2.08;;;8.10;76.80;;;;;;5077129;28;20457;-81
2021/11/26 11:25:28;;;;;;;3.38;2.13;;;8.10;76.80;;;;;;5076283;28;20062;-81
2021/11/26 11:27:56;;;;;;;3.80;2.40;;;8.10;76.80;;;;;;5076753;28;20039;-80
2021/11/26 11:30:22;;;;;;;2.95;2.05;;;8.10;76.80;;;;;;5094393;28;20020;-80
2021/11/26 11:32:48;;;;;;;3.00;1.98;;;8.10;76.70;;;;;;5093130;28;20071;-81
2021/11/26 11:35:15;;;;;;;3.75;2.30;;;8.20;76.80;;;;;;5093631;28;20353;-81
2021/11/26 11:37:42;;;;;;;3.58;2.08;;;8.20;76.80;;;;;;5093309;28;20063;-80
2021/11/26 11:40:09;;;;;;;3.92;2.30;;;8.20;76.80;;;;;;5093521;28;20032;-82
2021/11/26 11:42:42;;;;;;;3.13;2.03;;;8.20;76.70;;;;;;5076236;28;20090;-82
2021/11/26 11:45:10;;;;;;;3.70;2.10;;;8.30;76.80;;;;;;5076355;28;20024;-80
2021/11/26 11:47:49;;;;;;;2.33;1.77;;;8.30;76.70;;;;;;5094488;28;20024;-81
2021/11/26 11:50:20;;;;;;;3.58;2.30;;;8.30;76.80;;;;;;5092915;28;20050;-81
2021/11/26 11:52:53;;;;;;;3.38;2.03;;;8.30;76.70;;;;;;5075972;28;20027;-81
2021/11/26 11:55:37;;;;;;;3.15;1.90;;;8.30;76.80;;;;;;5092953;28;20032;-82
2021/11/26 11:58:29;;;;;;;3.15;1.90;;;8.30;76.70;;;;;;5076088;28;20024;-83
2021/11/26 12:00:55;;;;;;;3.97;1.90;;;8.40;76.80;;;;;;5093054;28;20046;-81
2021/11/26 12:03:24;;;;;;;4.32;2.03;;;8.40;76.70;;;;;;5060199;28;20086;-81
2021/11/26 12:06:04;;;;;;;3.38;2.03;;;8.40;77.40;;;;;;5093498;28;20059;-81
2021/11/26 12:08:42;;;;;;;2.92;1.85;;;8.40;76.80;;;;;;5076379;28;20031;-81
2021/11/26 12:11:08;;;;;;;2.92;2.00;;;8.40;76.70;;;;;;5076637;28;20032;-82
2021/11/26 12:13:36;;;;;;;3.10;2.10;;;8.40;76.60;;;;;;5076295;28;20118;-82
2021/11/26 12:16:15;;;;;;;2.63;2.13;;;8.50;76.70;;;;;;5076435;28;20024;-82
2021/11/26 12:18:48;;;;;;;4.25;2.30;;;8.50;76.80;;;;;;5094482;28;20032;-81
2021/11/26 12:21:24;;;;;;;2.80;1.92;;;8.50;76.60;;;;;;5093853;28;20030;-81
2021/11/26 12:24:27;;;;;;;3.33;2.25;;;8.50;76.70;;;;;;5080682;28;20130;-82
2021/11/26 12:27:01;;;;;;;3.25;2.00;;;8.50;76.80;;;;;;5075061;28;20032;-81
2021/11/26 12:29:35;;;;;;;3.75;1.83;;;8.50;76.50;;;;;;5091944;28;20475;-82
2021/11/26 12:32:09;;;;;;;3.53;2.00;;;8.60;76.70;;;;;;5099231;28;20139;-81
2021/11/26 12:34:49;;;;;;;3.00;2.00;;;8.60;76.70;;;;;;5092453;28;20024;-81
2021/11/26 12:37:24;;;;;;;4.25;1.90;;;8.60;76.60;;;;;;5075974;28;20020;-81
2021/11/26 12:39:51;;;;;;;;;;;8.60;76.60;;;;;;5096671;28;20036;-81
2021/11/26 12:42:18;;;;;;;3.45;1.80;;;8.60;76.50;;;;;;5096514;28;19967;-81
2021/11/26 12:44:55;;;;;;;3.30;2.17;;;8.60;76.40;;;;;;5096659;28;20126;-81
2021/11/26 12:47:22;;;;;;;4.72;2.38;;;8.60;76.60;;;;;;5096804;28;20074;-81
2021/11/26 12:52:21;;;;;;;3.17;1.80;;;8.60;76.50;;;;;;5079900;28;20040;-81
2021/11/26 12:54:53;;;;;;;3.50;2.28;;;8.60;76.50;;;;;;5096621;28;20034;-83
2021/11/26 12:57:22;;;;;;;3.72;2.10;;;8.70;76.60;;;;;;5097416;28;20056;-82
2021/11/26 13:00:09;;;;;;;3.53;1.90;;;8.70;76.60;;;;;;5096346;28;20031;-80
2021/11/26 13:02:37;;;;;;;3.53;2.40;;;8.80;77.20;;;;;;5095611;28;20048;-81
2021/11/26 13:05:09;;;;;;;4.22;2.35;;;8.70;76.50;;;;;;5096239;28;20024;-78
2021/11/26 13:07:37;;;;;;;3.30;2.10;;;8.80;76.60;;;;;;5079091;28;20107;-79
2021/11/26 13:10:10;;;;;;;2.67;2.10;;;8.70;76.50;;;;;;5079881;28;20016;-79
2021/11/26 13:12:39;;;;;;;3.03;2.00;;;8.80;76.50;;;;;;5095790;28;20086;-80
2021/11/26 13:15:34;;;;;;;3.67;2.10;;;8.80;76.50;;;;;;5095874;28;20032;-81